PWSweather.com
Personal Weather Stations
Station Observations
ANTHEMNP
Anthem North Parkside, Anthem, AZ 85086

Anthem North ParksideAnthem, AZ 85086

Lat: 33.876464, Lon: -112.13861199999997

Elevation: 1930

Station Type: Davis Vantage Vue with Pro 2 console

http://www.azjerry.com/ANPW/wxindex.php

High Low Average
Temperature 106.1°F41.2°C 79.3°F26.3°C 93.7°F34.3°C
Dew Point 49.0°F9.4°C 31.0°F-0.6°C 38.7°F3.7°C
Winds 7.1 mph 11.4 kmh Calm Calm 3.0 mph SE4.8 kmh SE
Wind Gusts 13.0 mph20.9 kmh -- 7.0 mph11.3 kmh
Humidity 19% 9% 15%
Pressure 29.95 in1014.2 mb 29.80 in1009.1 mb -
Precipitation 0.00 in0.0 mm - -
Hour Temp Dew Point Humidity Winds Wind Gusts Pressure Precip Precip Rate Daily Precip Total
12:00 AM 86.0°F30.0°C 33.0°F0.6°C 15% 1.6 mph N2.6 kmh N 3.0 mph4.8 kmh 29.89 in1012.2 mb 0.00 in0.0 mm 0.00 in0.0 mm 0.00 in0.0 mm
12:10 AM 85.9°F29.9°C 33.0°F0.6°C 15% 3.4 mph NE5.5 kmh NE 7.0 mph11.3 kmh 29.88 in1011.9 mb 0.00 in0.0 mm 0.00 in0.0 mm 0.00 in0.0 mm
12:20 AM 85.2°F29.6°C 34.0°F1.1°C 16% 3.2 mph NE5.1 kmh NE 5.0 mph8.0 kmh 29.89 in1012.2 mb 0.00 in0.0 mm 0.00 in0.0 mm 0.00 in0.0 mm
12:30 AM 85.3°F29.6°C 33.0°F0.6°C 15% 3.8 mph NNE6.1 kmh NNE 8.0 mph12.9 kmh 29.88 in1011.9 mb 0.00 in0.0 mm 0.00 in0.0 mm 0.00 in0.0 mm
12:40 AM 84.7°F29.3°C 34.0°F1.1°C 16% 2.7 mph NNE4.3 kmh NNE 6.0 mph9.7 kmh 29.88 in1011.9 mb 0.00 in0.0 mm 0.00 in0.0 mm 0.00 in0.0 mm
12:50 AM 84.7°F29.3°C 34.0°F1.1°C 16% 3.2 mph N5.1 kmh N 6.0 mph9.7 kmh 29.88 in1011.9 mb 0.00 in0.0 mm 0.00 in0.0 mm 0.00 in0.0 mm
01:00 AM 84.6°F29.2°C 32.0°F0.0°C 15% 3.1 mph N5.0 kmh N 6.0 mph9.7 kmh 29.88 in1011.9 mb 0.00 in0.0 mm 0.00 in0.0 mm 0.00 in0.0 mm
01:10 AM 84.0°F28.9°C 33.0°F0.6°C 16% 3.0 mph NNE4.8 kmh NNE 7.0 mph11.3 kmh 29.88 in1011.9 mb 0.00 in0.0 mm 0.00 in0.0 mm 0.00 in0.0 mm
01:20 AM 83.5°F28.6°C 33.0°F0.6°C 16% 2.4 mph N3.9 kmh N 7.0 mph11.3 kmh 29.88 in1011.9 mb 0.00 in0.0 mm 0.00 in0.0 mm 0.00 in0.0 mm
01:30 AM 83.5°F28.6°C 33.0°F0.6°C 16% 2.3 mph N3.7 kmh N 6.0 mph9.7 kmh 29.88 in1011.9 mb 0.00 in0.0 mm 0.00 in0.0 mm 0.00 in0.0 mm
01:40 AM 83.8°F28.8°C 33.0°F0.6°C 16% 2.8 mph N4.5 kmh N 5.0 mph8.0 kmh 29.88 in1011.9 mb 0.00 in0.0 mm 0.00 in0.0 mm 0.00 in0.0 mm
01:50 AM 83.6°F28.7°C 33.0°F0.6°C 16% 4.4 mph N7.1 kmh N 10.0 mph16.1 kmh 29.88 in1011.9 mb 0.00 in0.0 mm 0.00 in0.0 mm 0.00 in0.0 mm
02:00 AM 82.8°F28.2°C 34.0°F1.1°C 17% 3.8 mph NE6.1 kmh NE 7.0 mph11.3 kmh 29.88 in1011.9 mb 0.00 in0.0 mm 0.00 in0.0 mm 0.00 in0.0 mm
02:10 AM 82.6°F28.1°C 34.0°F1.1°C 17% 4.2 mph NNE6.8 kmh NNE 11.0 mph17.7 kmh 29.88 in1011.9 mb 0.00 in0.0 mm 0.00 in0.0 mm 0.00 in0.0 mm
02:20 AM 81.7°F27.6°C 33.0°F0.6°C 17% 2.9 mph NE4.7 kmh NE 8.0 mph12.9 kmh 29.88 in1011.9 mb 0.00 in0.0 mm 0.00 in0.0 mm 0.00 in0.0 mm
02:30 AM 81.8°F27.7°C 33.0°F0.6°C 17% 3.3 mph N5.3 kmh N 8.0 mph12.9 kmh 29.88 in1011.9 mb 0.00 in0.0 mm 0.00 in0.0 mm 0.00 in0.0 mm
02:40 AM 82.4°F28.0°C 32.0°F0.0°C 16% 3.1 mph N5.0 kmh N 8.0 mph12.9 kmh 29.88 in1011.9 mb 0.00 in0.0 mm 0.00 in0.0 mm 0.00 in0.0 mm
02:50 AM 81.9°F27.7°C 33.0°F0.6°C 17% 0.9 mph N1.4 kmh N 3.0 mph4.8 kmh 29.88 in1011.9 mb 0.00 in0.0 mm 0.00 in0.0 mm 0.00 in0.0 mm
03:00 AM 80.9°F27.2°C 34.0°F1.1°C 18% 0.5 mph N0.8 kmh N 5.0 mph8.0 kmh 29.89 in1012.2 mb 0.00 in0.0 mm 0.00 in0.0 mm 0.00 in0.0 mm
03:10 AM 80.9°F27.2°C 34.0°F1.1°C 18% 3.3 mph NE5.3 kmh NE 7.0 mph11.3 kmh 29.89 in1012.2 mb 0.00 in0.0 mm 0.00 in0.0 mm 0.00 in0.0 mm
03:20 AM 80.8°F27.1°C 33.0°F0.6°C 18% 1.4 mph NNE2.3 kmh NNE 5.0 mph8.0 kmh 29.89 in1012.2 mb 0.00 in0.0 mm 0.00 in0.0 mm 0.00 in0.0 mm
03:30 AM 80.7°F27.1°C 33.0°F0.6°C 18% 2.3 mph N3.7 kmh N 6.0 mph9.7 kmh 29.89 in1012.2 mb 0.00 in0.0 mm 0.00 in0.0 mm 0.00 in0.0 mm
03:40 AM 80.5°F26.9°C 33.0°F0.6°C 18% 3.7 mph NE6.0 kmh NE 8.0 mph12.9 kmh 29.89 in1012.2 mb 0.00 in0.0 mm 0.00 in0.0 mm 0.00 in0.0 mm
03:50 AM 80.2°F26.8°C 33.0°F0.6°C 18% 3.3 mph NNE5.3 kmh NNE 6.0 mph9.7 kmh 29.89 in1012.2 mb 0.00 in0.0 mm 0.00 in0.0 mm 0.00 in0.0 mm
04:00 AM 79.9°F26.6°C 33.0°F0.6°C 18% 2.8 mph NNE4.5 kmh NNE 7.0 mph11.3 kmh 29.89 in1012.2 mb 0.00 in0.0 mm 0.00 in0.0 mm 0.00 in0.0 mm
04:10 AM 79.7°F26.5°C 34.0°F1.1°C 19% 1.8 mph NNE2.9 kmh NNE 4.0 mph6.4 kmh 29.89 in1012.2 mb 0.00 in0.0 mm 0.00 in0.0 mm 0.00 in0.0 mm
04:20 AM 79.9°F26.6°C 33.0°F0.6°C 18% 2.7 mph NNE4.3 kmh NNE 6.0 mph9.7 kmh 29.89 in1012.2 mb 0.00 in0.0 mm 0.00 in0.0 mm 0.00 in0.0 mm
04:30 AM 79.4°F26.3°C 34.0°F1.1°C 19% 2.2 mph NNE3.5 kmh NNE 5.0 mph8.0 kmh 29.89 in1012.2 mb 0.00 in0.0 mm 0.00 in0.0 mm 0.00 in0.0 mm
04:40 AM 79.3°F26.3°C 32.0°F0.0°C 18% 1.9 mph NNE3.1 kmh NNE 6.0 mph9.7 kmh 29.89 in1012.2 mb 0.00 in0.0 mm 0.00 in0.0 mm 0.00 in0.0 mm
04:50 AM 80.1°F26.7°C 33.0°F0.6°C 18% 4.7 mph N7.6 kmh N 10.0 mph16.1 kmh 29.89 in1012.2 mb 0.00 in0.0 mm 0.00 in0.0 mm 0.00 in0.0 mm
05:00 AM 79.8°F26.6°C 33.0°F0.6°C 18% 4.2 mph N6.8 kmh N 9.0 mph14.5 kmh 29.90 in1012.5 mb 0.00 in0.0 mm 0.00 in0.0 mm 0.00 in0.0 mm
05:10 AM 79.7°F26.5°C 33.0°F0.6°C 18% 6.5 mph NNE10.5 kmh NNE 13.0 mph20.9 kmh 29.90 in1012.5 mb 0.00 in0.0 mm 0.00 in0.0 mm 0.00 in0.0 mm
05:20 AM 79.8°F26.6°C 33.0°F0.6°C 18% 7.1 mph NE11.4 kmh NE 13.0 mph20.9 kmh 29.91 in1012.9 mb 0.00 in0.0 mm 0.00 in0.0 mm 0.00 in0.0 mm
05:30 AM 79.9°F26.6°C 33.0°F0.6°C 18% 5.7 mph N9.2 kmh N 10.0 mph16.1 kmh 29.91 in1012.9 mb 0.00 in0.0 mm 0.00 in0.0 mm 0.00 in0.0 mm
05:40 AM 80.2°F26.8°C 32.0°F0.0°C 17% 5.2 mph N8.4 kmh N 11.0 mph17.7 kmh 29.91 in1012.9 mb 0.00 in0.0 mm 0.00 in0.0 mm 0.00 in0.0 mm
05:50 AM 80.0°F26.7°C 33.0°F0.6°C 18% 3.7 mph NNW6.0 kmh NNW 11.0 mph17.7 kmh 29.91 in1012.9 mb 0.00 in0.0 mm 0.00 in0.0 mm 0.00 in0.0 mm
06:00 AM 79.7°F26.5°C 33.0°F0.6°C 18% 2.9 mph N4.7 kmh N 9.0 mph14.5 kmh 29.92 in1013.2 mb 0.00 in0.0 mm 0.00 in0.0 mm 0.00 in0.0 mm
06:10 AM 79.7°F26.5°C 33.0°F0.6°C 18% 2.5 mph N4.0 kmh N 10.0 mph16.1 kmh 29.92 in1013.2 mb 0.00 in0.0 mm 0.00 in0.0 mm 0.00 in0.0 mm
06:20 AM 79.7°F26.5°C 33.0°F0.6°C 18% 4.2 mph N6.8 kmh N 9.0 mph14.5 kmh 29.92 in1013.2 mb 0.00 in0.0 mm 0.00 in0.0 mm 0.00 in0.0 mm
06:30 AM 79.8°F26.6°C 33.0°F0.6°C 18% 4.8 mph N7.7 kmh N 10.0 mph16.1 kmh 29.92 in1013.2 mb 0.00 in0.0 mm 0.00 in0.0 mm 0.00 in0.0 mm
06:40 AM 80.7°F27.1°C 32.0°F0.0°C 17% 4.1 mph N6.6 kmh N 7.0 mph11.3 kmh 29.93 in1013.5 mb 0.00 in0.0 mm 0.00 in0.0 mm 0.00 in0.0 mm
06:50 AM 81.5°F27.5°C 33.0°F0.6°C 17% 5.3 mph N8.5 kmh N 11.0 mph17.7 kmh 29.93 in1013.5 mb 0.00 in0.0 mm 0.00 in0.0 mm 0.00 in0.0 mm
07:00 AM 82.4°F28.0°C 32.0°F0.0°C 16% 4.8 mph N7.7 kmh N 10.0 mph16.1 kmh 29.93 in1013.5 mb 0.00 in0.0 mm 0.00 in0.0 mm 0.00 in0.0 mm
07:10 AM 83.4°F28.6°C 33.0°F0.6°C 16% 5.3 mph NNE8.5 kmh NNE 10.0 mph16.1 kmh 29.93 in1013.5 mb 0.00 in0.0 mm 0.00 in0.0 mm 0.00 in0.0 mm
07:20 AM 84.9°F29.4°C 32.0°F0.0°C 15% 5.7 mph N9.2 kmh N 11.0 mph17.7 kmh 29.94 in1013.9 mb 0.00 in0.0 mm 0.00 in0.0 mm 0.00 in0.0 mm
07:30 AM 85.8°F29.9°C 31.0°F-0.6°C 14% 5.8 mph N9.3 kmh N 10.0 mph16.1 kmh 29.94 in1013.9 mb 0.00 in0.0 mm 0.00 in0.0 mm 0.00 in0.0 mm
07:40 AM 87.2°F30.7°C 32.0°F0.0°C 14% 5.8 mph NNW9.3 kmh NNW 10.0 mph16.1 kmh 29.94 in1013.9 mb 0.00 in0.0 mm 0.00 in0.0 mm 0.00 in0.0 mm
07:50 AM 88.4°F31.3°C 32.0°F0.0°C 13% 4.0 mph N6.4 kmh N 8.0 mph12.9 kmh 29.94 in1013.9 mb 0.00 in0.0 mm 0.00 in0.0 mm 0.00 in0.0 mm
08:00 AM 89.1°F31.7°C 32.0°F0.0°C 13% 4.2 mph NNE6.8 kmh NNE 7.0 mph11.3 kmh 29.95 in1014.2 mb 0.00 in0.0 mm 0.00 in0.0 mm 0.00 in0.0 mm
08:10 AM 89.9°F32.2°C 33.0°F0.6°C 13% 4.2 mph N6.8 kmh N 7.0 mph11.3 kmh 29.94 in1013.9 mb 0.00 in0.0 mm 0.00 in0.0 mm 0.00 in0.0 mm
08:20 AM 91.4°F33.0°C 32.0°F0.0°C 12% 3.4 mph NE5.5 kmh NE 8.0 mph12.9 kmh 29.95 in1014.2 mb 0.00 in0.0 mm 0.00 in0.0 mm 0.00 in0.0 mm
08:30 AM 92.4°F33.6°C 33.0°F0.6°C 12% 3.4 mph N5.5 kmh N 7.0 mph11.3 kmh 29.94 in1013.9 mb 0.00 in0.0 mm 0.00 in0.0 mm 0.00 in0.0 mm
08:40 AM 93.1°F33.9°C 31.0°F-0.6°C 11% 3.7 mph NNE6.0 kmh NNE 8.0 mph12.9 kmh 29.94 in1013.9 mb 0.00 in0.0 mm 0.00 in0.0 mm 0.00 in0.0 mm
08:50 AM 93.7°F34.3°C 32.0°F0.0°C 11% 3.9 mph NNE6.3 kmh NNE 9.0 mph14.5 kmh 29.94 in1013.9 mb 0.00 in0.0 mm 0.00 in0.0 mm 0.00 in0.0 mm
09:00 AM 94.5°F34.7°C 32.0°F0.0°C 11% 3.3 mph N5.3 kmh N 8.0 mph12.9 kmh 29.94 in1013.9 mb 0.00 in0.0 mm 0.00 in0.0 mm 0.00 in0.0 mm
09:10 AM 95.1°F35.1°C 33.0°F0.6°C 11% 3.1 mph NNE5.0 kmh NNE 8.0 mph12.9 kmh 29.95 in1014.2 mb 0.00 in0.0 mm 0.00 in0.0 mm 0.00 in0.0 mm
09:20 AM 95.9°F35.5°C 31.0°F-0.6°C 10% 2.9 mph NNE4.7 kmh NNE 6.0 mph9.7 kmh 29.95 in1014.2 mb 0.00 in0.0 mm 0.00 in0.0 mm 0.00 in0.0 mm
09:30 AM 97.5°F36.4°C 32.0°F0.0°C 10% 0.8 mph N1.3 kmh N 3.0 mph4.8 kmh 29.95 in1014.2 mb 0.00 in0.0 mm 0.00 in0.0 mm 0.00 in0.0 mm
09:40 AM 98.1°F36.7°C 35.0°F1.7°C 11% 2.0 mph S3.2 kmh S 5.0 mph8.0 kmh 29.95 in1014.2 mb 0.00 in0.0 mm 0.00 in0.0 mm 0.00 in0.0 mm
09:50 AM 99.6°F37.6°C 36.0°F2.2°C 11% 1.4 mph S2.3 kmh S 5.0 mph8.0 kmh 29.95 in1014.2 mb 0.00 in0.0 mm 0.00 in0.0 mm 0.00 in0.0 mm
10:00 AM 99.5°F37.5°C 34.0°F1.1°C 10% 2.1 mph SW3.4 kmh SW 6.0 mph9.7 kmh 29.95 in1014.2 mb 0.00 in0.0 mm 0.00 in0.0 mm 0.00 in0.0 mm
10:10 AM 99.5°F37.5°C 34.0°F1.1°C 10% 1.1 mph NE1.8 kmh NE 5.0 mph8.0 kmh 29.95 in1014.2 mb 0.00 in0.0 mm 0.00 in0.0 mm 0.00 in0.0 mm
10:20 AM 99.8°F37.7°C 34.0°F1.1°C 10% 1.8 mph SE2.9 kmh SE 5.0 mph8.0 kmh 29.95 in1014.2 mb 0.00 in0.0 mm 0.00 in0.0 mm 0.00 in0.0 mm
10:30 AM 101.6°F38.7°C 36.0°F2.2°C 10% 0.4 mph SW0.6 kmh SW 3.0 mph4.8 kmh 29.95 in1014.2 mb 0.00 in0.0 mm 0.00 in0.0 mm 0.00 in0.0 mm
10:40 AM 101.9°F38.8°C 33.0°F0.6°C 9% 1.4 mph SSE2.3 kmh SSE 4.0 mph6.4 kmh 29.95 in1014.2 mb 0.00 in0.0 mm 0.00 in0.0 mm 0.00 in0.0 mm
10:50 AM 101.9°F38.8°C 36.0°F2.2°C 10% 2.4 mph SE3.9 kmh SE 6.0 mph9.7 kmh 29.95 in1014.2 mb 0.00 in0.0 mm 0.00 in0.0 mm 0.00 in0.0 mm
11:00 AM 101.8°F38.8°C 36.0°F2.2°C 10% 1.8 mph SW2.9 kmh SW 6.0 mph9.7 kmh 29.95 in1014.2 mb 0.00 in0.0 mm 0.00 in0.0 mm 0.00 in0.0 mm
11:10 AM 103.4°F39.7°C 37.0°F2.8°C 10% 1.0 mph SE1.6 kmh SE 4.0 mph6.4 kmh 29.95 in1014.2 mb 0.00 in0.0 mm 0.00 in0.0 mm 0.00 in0.0 mm
11:20 AM 102.7°F39.3°C 39.0°F3.9°C 11% 2.2 mph S3.5 kmh S 5.0 mph8.0 kmh 29.94 in1013.9 mb 0.00 in0.0 mm 0.00 in0.0 mm 0.00 in0.0 mm
11:30 AM 102.7°F39.3°C 39.0°F3.9°C 11% 2.3 mph SE3.7 kmh SE 5.0 mph8.0 kmh 29.94 in1013.9 mb 0.00 in0.0 mm 0.00 in0.0 mm 0.00 in0.0 mm
11:40 AM 103.8°F39.9°C 37.0°F2.8°C 10% 0.6 mph SW1.0 kmh SW 4.0 mph6.4 kmh 29.94 in1013.9 mb 0.00 in0.0 mm 0.00 in0.0 mm 0.00 in0.0 mm
11:50 AM 104.2°F40.1°C 40.0°F4.4°C 11% 0.9 mph SE1.4 kmh SE 3.0 mph4.8 kmh 29.94 in1013.9 mb 0.00 in0.0 mm 0.00 in0.0 mm 0.00 in0.0 mm
12:00 PM 104.5°F40.3°C 40.0°F4.4°C 11% 1.0 mph SSW1.6 kmh SSW 4.0 mph6.4 kmh 29.93 in1013.5 mb 0.00 in0.0 mm 0.00 in0.0 mm 0.00 in0.0 mm
12:10 PM 103.8°F39.9°C 44.0°F6.7°C 13% 3.3 mph SW5.3 kmh SW 10.0 mph16.1 kmh 29.93 in1013.5 mb 0.00 in0.0 mm 0.00 in0.0 mm 0.00 in0.0 mm
12:20 PM 104.5°F40.3°C 46.0°F7.8°C 14% 1.2 mph SW1.9 kmh SW 4.0 mph6.4 kmh 29.93 in1013.5 mb 0.00 in0.0 mm 0.00 in0.0 mm 0.00 in0.0 mm
12:30 PM 104.3°F40.2°C 46.0°F7.8°C 14% 1.5 mph N2.4 kmh N 5.0 mph8.0 kmh 29.92 in1013.2 mb 0.00 in0.0 mm 0.00 in0.0 mm 0.00 in0.0 mm
12:40 PM 102.9°F39.4°C 43.0°F6.1°C 13% 3.2 mph SW5.1 kmh SW 12.0 mph19.3 kmh 29.91 in1012.9 mb 0.00 in0.0 mm 0.00 in0.0 mm 0.00 in0.0 mm
12:50 PM 104.6°F40.3°C 43.0°F6.1°C 12% 2.6 mph SW4.2 kmh SW 8.0 mph12.9 kmh 29.91 in1012.9 mb 0.00 in0.0 mm 0.00 in0.0 mm 0.00 in0.0 mm
01:00 PM 104.3°F40.2°C 42.0°F5.6°C 12% 3.9 mph SW6.3 kmh SW 9.0 mph14.5 kmh 29.91 in1012.9 mb 0.00 in0.0 mm 0.00 in0.0 mm 0.00 in0.0 mm
01:10 PM 104.5°F40.3°C 45.0°F7.2°C 13% 1.7 mph S2.7 kmh S 7.0 mph11.3 kmh 29.90 in1012.5 mb 0.00 in0.0 mm 0.00 in0.0 mm 0.00 in0.0 mm
01:20 PM 103.7°F39.8°C 44.0°F6.7°C 13% 1.7 mph S2.7 kmh S 5.0 mph8.0 kmh 29.89 in1012.2 mb 0.00 in0.0 mm 0.00 in0.0 mm 0.00 in0.0 mm
01:30 PM 104.9°F40.5°C 41.0°F5.0°C 11% 2.9 mph SE4.7 kmh SE 8.0 mph12.9 kmh 29.89 in1012.2 mb 0.00 in0.0 mm 0.00 in0.0 mm 0.00 in0.0 mm
01:40 PM 104.7°F40.4°C 45.0°F7.2°C 13% 2.9 mph SW4.7 kmh SW 8.0 mph12.9 kmh 29.89 in1012.2 mb 0.00 in0.0 mm 0.00 in0.0 mm 0.00 in0.0 mm
01:50 PM 104.9°F40.5°C 45.0°F7.2°C 13% 1.7 mph S2.7 kmh S 5.0 mph8.0 kmh 29.88 in1011.9 mb 0.00 in0.0 mm 0.00 in0.0 mm 0.00 in0.0 mm
02:00 PM 104.2°F40.1°C 46.0°F7.8°C 14% 3.1 mph SSW5.0 kmh SSW 12.0 mph19.3 kmh 29.88 in1011.9 mb 0.00 in0.0 mm 0.00 in0.0 mm 0.00 in0.0 mm
02:10 PM 104.2°F40.1°C 46.0°F7.8°C 14% 3.1 mph WSW5.0 kmh WSW 11.0 mph17.7 kmh 29.88 in1011.9 mb 0.00 in0.0 mm 0.00 in0.0 mm 0.00 in0.0 mm
02:20 PM 105.1°F40.6°C 47.0°F8.3°C 14% 3.1 mph S5.0 kmh S 8.0 mph12.9 kmh 29.87 in1011.5 mb 0.00 in0.0 mm 0.00 in0.0 mm 0.00 in0.0 mm
02:30 PM 106.1°F41.2°C 46.0°F7.8°C 13% 2.0 mph N3.2 kmh N 8.0 mph12.9 kmh 29.87 in1011.5 mb 0.00 in0.0 mm 0.00 in0.0 mm 0.00 in0.0 mm
02:40 PM 104.7°F40.4°C 47.0°F8.3°C 14% 3.9 mph SW6.3 kmh SW 10.0 mph16.1 kmh 29.86 in1011.2 mb 0.00 in0.0 mm 0.00 in0.0 mm 0.00 in0.0 mm
02:50 PM 105.0°F40.6°C 47.0°F8.3°C 14% 2.8 mph W4.5 kmh W 13.0 mph20.9 kmh 29.86 in1011.2 mb 0.00 in0.0 mm 0.00 in0.0 mm 0.00 in0.0 mm
03:00 PM 105.5°F40.8°C 47.0°F8.3°C 14% 3.0 mph ESE4.8 kmh ESE 9.0 mph14.5 kmh 29.85 in1010.8 mb 0.00 in0.0 mm 0.00 in0.0 mm 0.00 in0.0 mm
03:10 PM 105.8°F41.0°C 48.0°F8.9°C 14% 1.7 mph SW2.7 kmh SW 7.0 mph11.3 kmh 29.85 in1010.8 mb 0.00 in0.0 mm 0.00 in0.0 mm 0.00 in0.0 mm
03:20 PM 104.4°F40.2°C 48.0°F8.9°C 15% 1.4 mph NE2.3 kmh NE 4.0 mph6.4 kmh 29.84 in1010.5 mb 0.00 in0.0 mm 0.00 in0.0 mm 0.00 in0.0 mm
03:30 PM 105.0°F40.6°C 47.0°F8.3°C 14% 2.4 mph NE3.9 kmh NE 7.0 mph11.3 kmh 29.83 in1010.2 mb 0.00 in0.0 mm 0.00 in0.0 mm 0.00 in0.0 mm
03:40 PM 105.8°F41.0°C 46.0°F7.8°C 13% 2.0 mph NW3.2 kmh NW 6.0 mph9.7 kmh 29.84 in1010.5 mb 0.00 in0.0 mm 0.00 in0.0 mm 0.00 in0.0 mm
03:50 PM 105.4°F40.8°C 45.0°F7.2°C 13% 1.7 mph SSE2.7 kmh SSE 7.0 mph11.3 kmh 29.83 in1010.2 mb 0.00 in0.0 mm 0.00 in0.0 mm 0.00 in0.0 mm
04:00 PM 105.0°F40.6°C 47.0°F8.3°C 14% 2.2 mph SE3.5 kmh SE 11.0 mph17.7 kmh 29.83 in1010.2 mb 0.00 in0.0 mm 0.00 in0.0 mm 0.00 in0.0 mm
04:10 PM 104.6°F40.3°C 47.0°F8.3°C 14% 3.4 mph SSW5.5 kmh SSW 10.0 mph16.1 kmh 29.83 in1010.2 mb 0.00 in0.0 mm 0.00 in0.0 mm 0.00 in0.0 mm
04:20 PM 104.6°F40.3°C 47.0°F8.3°C 14% 2.7 mph SSW4.3 kmh SSW 8.0 mph12.9 kmh 29.82 in1009.8 mb 0.00 in0.0 mm 0.00 in0.0 mm 0.00 in0.0 mm
04:30 PM 105.2°F40.7°C 49.0°F9.4°C 15% 1.8 mph SSW2.9 kmh SSW 8.0 mph12.9 kmh 29.82 in1009.8 mb 0.00 in0.0 mm 0.00 in0.0 mm 0.00 in0.0 mm
04:40 PM 104.7°F40.4°C 47.0°F8.3°C 14% 2.8 mph SW4.5 kmh SW 11.0 mph17.7 kmh 29.82 in1009.8 mb 0.00 in0.0 mm 0.00 in0.0 mm 0.00 in0.0 mm
04:50 PM 104.2°F40.1°C 48.0°F8.9°C 15% 3.9 mph SSW6.3 kmh SSW 11.0 mph17.7 kmh 29.82 in1009.8 mb 0.00 in0.0 mm 0.00 in0.0 mm 0.00 in0.0 mm
05:00 PM 103.6°F39.8°C 48.0°F8.9°C 15% 3.4 mph NE5.5 kmh NE 11.0 mph17.7 kmh 29.82 in1009.8 mb 0.00 in0.0 mm 0.00 in0.0 mm 0.00 in0.0 mm
05:10 PM 104.0°F40.0°C 48.0°F8.9°C 15% 2.7 mph SSW4.3 kmh SSW 8.0 mph12.9 kmh 29.81 in1009.5 mb 0.00 in0.0 mm 0.00 in0.0 mm 0.00 in0.0 mm
05:20 PM 103.5°F39.7°C 48.0°F8.9°C 15% 4.4 mph SW7.1 kmh SW 9.0 mph14.5 kmh 29.81 in1009.5 mb 0.00 in0.0 mm 0.00 in0.0 mm 0.00 in0.0 mm
05:30 PM 103.9°F39.9°C 48.0°F8.9°C 15% 3.5 mph SE5.6 kmh SE 11.0 mph17.7 kmh 29.81 in1009.5 mb 0.00 in0.0 mm 0.00 in0.0 mm 0.00 in0.0 mm
05:40 PM 103.5°F39.7°C 48.0°F8.9°C 15% 2.8 mph SW4.5 kmh SW 10.0 mph16.1 kmh 29.81 in1009.5 mb 0.00 in0.0 mm 0.00 in0.0 mm 0.00 in0.0 mm
05:50 PM 102.9°F39.4°C 49.0°F9.4°C 16% 4.0 mph SSE6.4 kmh SSE 9.0 mph14.5 kmh 29.81 in1009.5 mb 0.00 in0.0 mm 0.00 in0.0 mm 0.00 in0.0 mm
06:00 PM 102.9°F39.4°C 47.0°F8.3°C 15% 3.7 mph SSW6.0 kmh SSW 9.0 mph14.5 kmh 29.80 in1009.1 mb 0.00 in0.0 mm 0.00 in0.0 mm 0.00 in0.0 mm
06:10 PM 102.6°F39.2°C 47.0°F8.3°C 15% 3.6 mph SW5.8 kmh SW 11.0 mph17.7 kmh 29.81 in1009.5 mb 0.00 in0.0 mm 0.00 in0.0 mm 0.00 in0.0 mm
06:20 PM 102.5°F39.2°C 47.0°F8.3°C 15% 3.1 mph S5.0 kmh S 9.0 mph14.5 kmh 29.80 in1009.1 mb 0.00 in0.0 mm 0.00 in0.0 mm 0.00 in0.0 mm
06:30 PM 102.2°F39.0°C 46.0°F7.8°C 15% 2.8 mph WSW4.5 kmh WSW 7.0 mph11.3 kmh 29.81 in1009.5 mb 0.00 in0.0 mm 0.00 in0.0 mm 0.00 in0.0 mm
06:40 PM 102.0°F38.9°C 44.0°F6.7°C 14% 2.5 mph SE4.0 kmh SE 7.0 mph11.3 kmh 29.80 in1009.1 mb 0.00 in0.0 mm 0.00 in0.0 mm 0.00 in0.0 mm
06:50 PM 101.9°F38.8°C 44.0°F6.7°C 14% 3.3 mph S5.3 kmh S 9.0 mph14.5 kmh 29.81 in1009.5 mb 0.00 in0.0 mm 0.00 in0.0 mm 0.00 in0.0 mm
07:00 PM 101.5°F38.6°C 44.0°F6.7°C 14% 2.6 mph SW4.2 kmh SW 7.0 mph11.3 kmh 29.81 in1009.5 mb 0.00 in0.0 mm 0.00 in0.0 mm 0.00 in0.0 mm
07:10 PM 100.9°F38.3°C 42.0°F5.6°C 13% 2.1 mph S3.4 kmh S 5.0 mph8.0 kmh 29.81 in1009.5 mb 0.00 in0.0 mm 0.00 in0.0 mm 0.00 in0.0 mm
07:20 PM 100.4°F38.0°C 43.0°F6.1°C 14% 2.2 mph WSW3.5 kmh WSW 8.0 mph12.9 kmh 29.81 in1009.5 mb 0.00 in0.0 mm 0.00 in0.0 mm 0.00 in0.0 mm
07:30 PM 99.9°F37.7°C 43.0°F6.1°C 14% 2.8 mph S4.5 kmh S 8.0 mph12.9 kmh 29.82 in1009.8 mb 0.00 in0.0 mm 0.00 in0.0 mm 0.00 in0.0 mm
07:40 PM 99.4°F37.4°C 42.0°F5.6°C 14% 2.7 mph S4.3 kmh S 6.0 mph9.7 kmh 29.82 in1009.8 mb 0.00 in0.0 mm 0.00 in0.0 mm 0.00 in0.0 mm
07:50 PM 99.0°F37.2°C 42.0°F5.6°C 14% 1.9 mph SW3.1 kmh SW 4.0 mph6.4 kmh 29.82 in1009.8 mb 0.00 in0.0 mm 0.00 in0.0 mm 0.00 in0.0 mm
08:00 PM 98.5°F36.9°C 42.0°F5.6°C 14% 2.2 mph S3.5 kmh S 5.0 mph8.0 kmh 29.82 in1009.8 mb 0.00 in0.0 mm 0.00 in0.0 mm 0.00 in0.0 mm
08:10 PM 98.1°F36.7°C 43.0°F6.1°C 15% 1.9 mph SSW3.1 kmh SSW 4.0 mph6.4 kmh 29.83 in1010.2 mb 0.00 in0.0 mm 0.00 in0.0 mm 0.00 in0.0 mm
08:20 PM 97.7°F36.5°C 43.0°F6.1°C 15% 1.2 mph SW1.9 kmh SW 4.0 mph6.4 kmh 29.83 in1010.2 mb 0.00 in0.0 mm 0.00 in0.0 mm 0.00 in0.0 mm
08:30 PM 97.2°F36.2°C 42.0°F5.6°C 15% 0.8 mph SSW1.3 kmh SSW 3.0 mph4.8 kmh 29.84 in1010.5 mb 0.00 in0.0 mm 0.00 in0.0 mm 0.00 in0.0 mm
08:40 PM 96.8°F36.0°C 42.0°F5.6°C 15% 0.8 mph SW1.3 kmh SW 6.0 mph9.7 kmh 29.84 in1010.5 mb 0.00 in0.0 mm 0.00 in0.0 mm 0.00 in0.0 mm
08:50 PM 96.0°F35.6°C 41.0°F5.0°C 15% 0.1 mph SSW0.2 kmh SSW 2.0 mph3.2 kmh 29.84 in1010.5 mb 0.00 in0.0 mm 0.00 in0.0 mm 0.00 in0.0 mm
09:00 PM 94.6°F34.8°C 42.0°F5.6°C 16% Calm Calm -- 29.85 in1010.8 mb 0.00 in0.0 mm 0.00 in0.0 mm 0.00 in0.0 mm
09:10 PM 93.5°F34.2°C 43.0°F6.1°C 17% Calm Calm -- 29.85 in1010.8 mb 0.00 in0.0 mm 0.00 in0.0 mm 0.00 in0.0 mm
09:20 PM 92.8°F33.8°C 42.0°F5.6°C 17% Calm Calm 1.0 mph1.6 kmh 29.85 in1010.8 mb 0.00 in0.0 mm 0.00 in0.0 mm 0.00 in0.0 mm
09:30 PM 93.0°F33.9°C 42.0°F5.6°C 17% Calm Calm 1.0 mph1.6 kmh 29.86 in1011.2 mb 0.00 in0.0 mm 0.00 in0.0 mm 0.00 in0.0 mm
09:40 PM 92.7°F33.7°C 42.0°F5.6°C 17% 0.2 mph NNE0.3 kmh NNE 2.0 mph3.2 kmh 29.85 in1010.8 mb 0.00 in0.0 mm 0.00 in0.0 mm 0.00 in0.0 mm
09:50 PM 92.5°F33.6°C 42.0°F5.6°C 17% 0.5 mph N0.8 kmh N 1.0 mph1.6 kmh 29.86 in1011.2 mb 0.00 in0.0 mm 0.00 in0.0 mm 0.00 in0.0 mm
10:00 PM 92.6°F33.7°C 40.0°F4.4°C 16% 1.4 mph NNE2.3 kmh NNE 3.0 mph4.8 kmh 29.86 in1011.2 mb 0.00 in0.0 mm 0.00 in0.0 mm 0.00 in0.0 mm
10:10 PM 92.3°F33.5°C 40.0°F4.4°C 16% 0.5 mph NNE0.8 kmh NNE 1.0 mph1.6 kmh 29.86 in1011.2 mb 0.00 in0.0 mm 0.00 in0.0 mm 0.00 in0.0 mm
10:20 PM 91.7°F33.2°C 39.0°F3.9°C 16% Calm Calm 1.0 mph1.6 kmh 29.85 in1010.8 mb 0.00 in0.0 mm 0.00 in0.0 mm 0.00 in0.0 mm
10:30 PM 90.6°F32.6°C 39.0°F3.9°C 16% Calm Calm -- 29.86 in1011.2 mb 0.00 in0.0 mm 0.00 in0.0 mm 0.00 in0.0 mm
10:40 PM 89.6°F32.0°C 39.0°F3.9°C 17% Calm Calm -- 29.86 in1011.2 mb 0.00 in0.0 mm 0.00 in0.0 mm 0.00 in0.0 mm
10:50 PM 88.2°F31.2°C 41.0°F5.0°C 19% Calm Calm -- 29.86 in1011.2 mb 0.00 in0.0 mm 0.00 in0.0 mm 0.00 in0.0 mm
11:00 PM 88.5°F31.4°C 40.0°F4.4°C 18% 0.2 mph NNE0.3 kmh NNE 1.0 mph1.6 kmh 29.85 in1010.8 mb 0.00 in0.0 mm 0.00 in0.0 mm 0.00 in0.0 mm
11:10 PM 88.7°F31.5°C 40.0°F4.4°C 18% 0.1 mph NNE0.2 kmh NNE 1.0 mph1.6 kmh 29.85 in1010.8 mb 0.00 in0.0 mm 0.00 in0.0 mm 0.00 in0.0 mm
11:20 PM 88.6°F31.4°C 38.0°F3.3°C 17% Calm Calm 1.0 mph1.6 kmh 29.85 in1010.8 mb 0.00 in0.0 mm 0.00 in0.0 mm 0.00 in0.0 mm
11:30 PM 87.5°F30.8°C 40.0°F4.4°C 19% Calm Calm 1.0 mph1.6 kmh 29.86 in1011.2 mb 0.00 in0.0 mm 0.00 in0.0 mm 0.00 in0.0 mm
11:40 PM 86.8°F30.4°C 40.0°F4.4°C 19% Calm Calm 1.0 mph1.6 kmh 29.86 in1011.2 mb 0.00 in0.0 mm 0.00 in0.0 mm 0.00 in0.0 mm
11:50 PM 85.6°F29.8°C 39.0°F3.9°C 19% Calm Calm -- 29.86 in1011.2 mb 0.00 in0.0 mm 0.00 in0.0 mm 0.00 in0.0 mm